• Join FlightAware (Why Join?)
  • Login
  • US Flag 
07:14PM EDT


 

Airport Tracker/Info


-or-


 

Live Flight TrackerFlight Track Log ✈ FFT532 ✈ 12-Jul-2013 ✈ KDEN - KMDW

Flight Track Log - Related Links

Times and Time Zones

All times are in EDT time to prevent confusion due to time zone crossing. See the FFT532 flight status page for this flight to view local times or setup timezone preferences in your user account.

Time Position Orientation Groundspeed Altitude Reporting Facility
EDT Latitude Longitude Course Direction KTS MPH feet Rate Location/Type
09:26AM 39.7833 -104.6167 142° Southeast 196 226 7,200  Level Denver TRACON
09:27AM 39.7333 -104.5667 142° Southeast 249 287 8,200 1,500 Climbing Denver TRACON
09:28AM 39.6808 -104.5192 145° Southeast 292 336 9,900 1,980 Climbing Denver Center
09:29AM 39.6386 -104.4586 132° Southeast 311 358 11,900 1,860 Climbing Denver Center
09:30AM 39.6728 -104.3178 72° East 345 397 13,700 2,040 Climbing Denver Center
09:31AM 39.7164 -104.2003 64° Northeast 360 414 16,200 2,160 Climbing Denver Center
09:32AM 39.7625 -104.0706 65° Northeast 368 423 18,200 1,800 Climbing Denver Center
09:33AM 39.8072 -103.9439 65° Northeast 387 445 19,900 1,500 Climbing Denver Center
09:34AM 39.8539 -103.8144 65° Northeast 395 455 21,600 1,500 Climbing Denver Center
09:35AM 39.8928 -103.6439 73° East 404 465 23,300 1,560 Climbing Denver Center
09:36AM 39.9111 -103.4944 81° East 419 482 24,800 1,380 Climbing Denver Center
09:37AM 39.9286 -103.3397 82° East 430 495 26,200 1,260 Climbing Denver Center
09:38AM 39.9461 -103.1803 82° East 442 509 27,400 1,140 Climbing Denver Center
09:39AM 39.9617 -103.0178 83° East 451 519 28,600 1,140 Climbing Denver Center
09:40AM 39.9711 -102.8522 86° East 458 527 29,800 1,080 Climbing Denver Center
09:41AM 39.9825 -102.6819 85° East 464 534 30,900 1,200 Climbing Denver Center
09:42AM 39.9936 -102.4931 86° East 468 539 32,300 1,140 Climbing Denver Center
09:43AM 40.0031 -102.3317 86° East 467 537 33,300 1,140 Climbing Denver Center
09:44AM 40.0144 -102.1444 85° East 466 536 34,700 1,080 Climbing Denver Center
09:45AM 40.0233 -101.9833 86° East 467 537 35,800 1,020 Climbing Denver Center
09:46AM 40.0358 -101.7728 85° East 459 528 37,100 960 Climbing Denver Center
09:47AM 40.0544 -101.6161 81° East 458 527 37,800 660 Climbing Denver Center
09:48AM 40.0725 -101.4322 83° East 459 528 38,500 540 Climbing Denver Center
09:49AM 40.0892 -101.2775 82° East 454 522 39,000 240 Climbing Denver Center
09:50AM 40.1039 -101.1206 83° East 457 526 39,000  Level Denver Center
09:52AM 40.1225 -100.9392 82° East 454 522 39,000  Level Denver Center
09:53AM 40.1375 -100.7850 83° East 450 518 39,000  Level Denver Center
09:54AM 40.1542 -100.6069 83° East 445 512 39,000  Level Denver Center
09:55AM 40.1686 -100.4550 83° East 442 509 39,000  Level Denver Center
09:56AM 40.1853 -100.2781 83° East 440 506 39,000  Level Denver Center
09:57AM 40.1997 -100.1242 83° East 444 511 39,000  Level Denver Center
09:58AM 40.2133 -99.9694 83° East 447 514 39,100  Climbing Denver Center
09:59AM 40.2297 -99.7919 83° East 445 512 39,100 -60 Level Denver Center
10:00AM 40.2433 -99.6333 84° East 442 509 39,000 -60 Descending Denver Center
10:01AM 40.2575 -99.4736 83° East 442 509 39,000  Level Denver Center
10:02AM 40.2711 -99.3156 84° East 440 506 39,000  Level Denver Center
10:03AM 40.2836 -99.1575 84° East 438 504 39,000  Level Denver Center
10:04AM 40.2978 -98.9992 83° East 442 509 39,000  Level Minneapolis Center
10:05AM 40.3097 -98.8403 84° East 441 507 39,000  Level Minneapolis Center
10:06AM 40.3214 -98.6806 84° East 442 509 39,000  Level Minneapolis Center
10:07AM 40.3339 -98.5219 84° East 441 507 39,000  Level Minneapolis Center
10:08AM 40.3467 -98.3617 84° East 443 510 39,000  Level Minneapolis Center
10:09AM 40.3614 -98.1700 84° East 442 509 39,000  Level Minneapolis Center
10:10AM 40.3728 -98.0083 85° East 445 512 39,000  Level Minneapolis Center
10:11AM 40.3844 -97.8483 84° East 444 511 39,000  Level Minneapolis Center
10:12AM 40.3958 -97.6897 85° East 441 507 39,000  Level Minneapolis Center
10:13AM 40.4067 -97.5297 85° East 441 507 39,000  Level Minneapolis Center
10:14AM 40.4181 -97.3703 85° East 440 506 39,000  Level Minneapolis Center
10:15AM 40.4300 -97.1822 85° East 441 507 39,000  Level Minneapolis Center
10:16AM 40.4400 -97.0206 85° East 445 512 39,100  Climbing Minneapolis Center
10:17AM 40.4500 -96.8600 85° East 444 511 39,000 -60 Descending Minneapolis Center
10:18AM 40.4606 -96.7006 85° East 442 509 39,000  Level Minneapolis Center
10:19AM 40.4706 -96.5406 85° East 442 509 39,000  Level Minneapolis Center
10:20AM 40.4800 -96.3806 86° East 440 506 39,000  Level Minneapolis Center
10:21AM 40.4908 -96.1894 86° East 441 507 39,000  Level Minneapolis Center
10:22AM 40.5003 -96.0306 85° East 440 506 39,000  Level Minneapolis Center
10:23AM 40.5086 -95.8689 86° East 445 512 39,000  Level Minneapolis Center
10:24AM 40.5167 -95.7083 86° East 445 512 39,000  Level Minneapolis Center
10:25AM 40.5253 -95.5475 86° East 442 509 39,000  Level Minneapolis Center
10:26AM 40.5367 -95.3561 85° East 442 509 39,000  Level Minneapolis Center
10:27AM 40.5436 -95.1958 87° East 440 506 39,000  Level Minneapolis Center
10:28AM 40.5528 -95.0369 86° East 439 505 39,000  Level Minneapolis Center
10:29AM 40.5589 -94.8800 87° East 435 501 39,000  Level Minneapolis Center
10:31AM 40.5658 -94.7217 87° East 435 501 39,000  Level Minneapolis Center
10:32AM 40.5756 -94.5428 86° East 435 501 39,000  Level Minneapolis Center
10:33AM 40.5797 -94.3861 88° East 434 499 39,000  Level Minneapolis Center
10:34AM 40.5864 -94.2303 87° East 432 497 39,000  Level Minneapolis Center
10:35AM 40.5928 -94.0428 87° East 432 497 39,000  Level Minneapolis Center
10:36AM 40.6067 -93.8900 83° East 426 490 39,000  Level Minneapolis Center
10:37AM 40.6339 -93.7111 79° East 420 483 39,000  Level Minneapolis Center
10:37AM 40.6481 -93.6192 78° East 421 484 39,000  Level Chicago Center
10:39AM 40.6694 -93.4692 79° East 420 483 39,000  Level Chicago Center
10:40AM 40.6914 -93.3181 79° East 421 484 39,000 -420 Level Chicago Center
10:41AM 40.7131 -93.1681 79° East 419 482 38,200 -1,200 Descending Chicago Center
10:42AM 40.7350 -93.0167 79° East 422 486 36,500 -1,920 Descending Chicago Center
10:43AM 40.7561 -92.8631 80° East 427 491 34,200 -1,980 Descending Chicago Center
10:44AM 40.7811 -92.6822 80° East 420 483 32,500 -1,560 Descending Chicago Center
10:45AM 40.8003 -92.5344 80° East 411 473 31,000 -780 Descending Chicago Center
10:46AM 40.8194 -92.3933 80° East 395 455 31,000  Level Chicago Center
10:47AM 40.8392 -92.2503 80° East 396 456 31,000  Level Chicago Center
10:48AM 40.8583 -92.1067 80° East 398 458 31,000  Level Chicago Center
10:49AM 40.8758 -91.9631 81° East 398 458 31,000  Level Chicago Center
10:50AM 40.8986 -91.7919 80° East 398 458 31,000  Level Chicago Center
10:51AM 40.9175 -91.6514 80° East 394 453 31,000  Level Chicago Center
10:52AM 40.9356 -91.5086 80° East 396 456 31,000 -240 Level Chicago Center
10:53AM 40.9531 -91.3683 81° East 391 450 30,600 -780 Descending Chicago Center
10:54AM 40.9725 -91.2108 81° East 386 444 29,400 -1,020 Descending Chicago Center
10:55AM 40.9889 -91.0722 81° East 383 441 28,500 -960 Descending Chicago Center
10:56AM 41.0056 -90.9358 81° East 377 434 27,500 -1,320 Descending Chicago Center
10:57AM 41.0222 -90.7983 81° East 377 434 25,800 -1,800 Descending Chicago Center
10:58AM 41.0381 -90.6619 81° East 375 432 23,800 -1,680 Descending Chicago Center
10:59AM 41.0581 -90.4978 81° East 375 432 22,400 -1,260 Descending Chicago Center
11:00AM 41.0733 -90.3633 81° East 370 426 21,300 -1,080 Descending Chicago Center
11:01AM 41.0892 -90.2314 81° East 365 420 20,200 -1,080 Descending Chicago Center
11:02AM 41.1039 -90.0994 82° East 361 415 19,100 -1,080 Descending Chicago Center
11:03AM 41.1181 -89.9678 82° East 360 414 18,000 -1,020 Descending Chicago Center
11:04AM 41.1328 -89.8378 81° East 355 409 17,100 -1,020 Descending Chicago Center
11:05AM 41.1472 -89.7097 81° East 349 402 16,000 -1,260 Descending Chicago Center
11:06AM 41.1614 -89.5831 82° East 346 398 14,600 -2,160 Descending Chicago Center
11:07AM 41.1967 -89.4319 73° East 367 422 11,600 -1,800 Descending Chicago Center
11:09AM 41.2364 -89.3031 68° East 376 433 11,000 -300 Descending Chicago Center
11:10AM 41.2769 -89.1794 66° East 368 423 11,000  Level Chicago Center
11:11AM 41.3169 -89.0519 67° East 373 429 11,000 -180 Level Chicago Center
11:12AM 41.3600 -88.9322 64° Northeast 364 419 10,700 -540 Descending Chicago Center
11:13AM 41.3919 -88.8219 69° East 333 383 10,000 -780 Descending Chicago Center
11:14AM 41.4214 -88.7244 68° East 297 342 9,100 -1,080 Descending Chicago Center
11:15AM 41.4553 -88.6072 69° East 284 327 7,800 -900 Descending Chicago Center
11:16AM 41.4750 -88.5086 75° East 277 319 7,300 -540 Descending Chicago Center
11:17AM 41.4944 -88.4097 75° East 275 316 6,800 -540 Descending Chicago Center
11:18AM 41.5144 -88.3125 75° East 274 315 6,300 -540 Descending Chicago Center
11:19AM 41.5353 -88.2206 73° East 267 307 5,800 -540 Descending Chicago Center
11:20AM 41.5553 -88.1272 74° East 264 304 5,300 -420 Descending Chicago Center
11:21AM 41.5644 -88.0167 84° East 255 293 5,000 -420 Descending Chicago Center
11:23AM 41.6679 -87.9531 25° Northeast  Level FlightAware Approximate
11:23AM 41.5833 -87.7667 25° Northeast 255 293 3,800  Level Chicago TRACON
11:24AM 41.6000 -87.7000 71° East 239 275 3,000 -420 Descending Chicago TRACON
11:25AM 41.6500 -87.6500 37° Northeast 226 260 3,000 -480 Level Chicago TRACON
11:27AM 41.7493 -87.7247 331° Northwest  Level Estimated
11:27AM 41.7500 -87.7000 331° Northwest 173 199 1,700  Level Chicago TRACON
11:29AM 41.7833 -87.7500 51° Northeast  Level FlightAware Approximate
11:36AM 41.7860 -87.7524 51° Northeast  Level Estimated
11:37AM 41.7833 -87.7500 51° Northeast  Level FlightAware Approximate